createdAt,value
2023-01-11T00:01:39.066Z,11.40
2023-01-11T00:04:13.117Z,11.40
2023-01-11T00:06:40.520Z,11.30
2023-01-11T00:09:07.654Z,11.30
2023-01-11T00:11:34.705Z,11.30
2023-01-11T00:14:01.647Z,11.30
2023-01-11T00:16:28.769Z,11.30
2023-01-11T00:18:56.554Z,11.30
2023-01-11T00:21:23.507Z,11.30
2023-01-11T00:23:50.672Z,11.30
2023-01-11T00:26:18.612Z,11.30
2023-01-11T00:28:48.475Z,11.30
2023-01-11T00:31:16.489Z,11.30
2023-01-11T00:33:43.393Z,11.30
2023-01-11T00:36:10.504Z,11.30
2023-01-11T00:38:43.815Z,11.30
2023-01-11T00:41:30.165Z,11.30
2023-01-11T00:44:15.932Z,11.20
2023-01-11T00:47:01.993Z,11.30
2023-01-11T00:49:28.997Z,11.20
2023-01-11T00:51:56.895Z,11.20
2023-01-11T00:54:28.926Z,11.20
2023-01-11T00:56:56.344Z,11.20
2023-01-11T00:59:26.837Z,11.20
2023-01-11T01:01:55.090Z,11.10
2023-01-11T01:04:26.435Z,11.00
2023-01-11T01:06:54.311Z,11.10
2023-01-11T01:09:22.294Z,11.00
2023-01-11T01:11:51.523Z,11.00
2023-01-11T01:14:33.612Z,11.00
2023-01-11T01:17:03.673Z,10.90
2023-01-11T01:19:31.693Z,10.90
2023-01-11T01:22:00.439Z,10.90
2023-01-11T01:24:28.896Z,10.90
2023-01-11T01:26:57.447Z,10.90
2023-01-11T01:29:25.886Z,10.90
2023-01-11T01:31:54.771Z,10.80
2023-01-11T01:34:26.223Z,10.80
2023-01-11T01:36:55.718Z,10.80
2023-01-11T01:39:23.924Z,10.70
2023-01-11T01:41:57.909Z,10.70
2023-01-11T01:44:50.787Z,10.70
2023-01-11T01:47:21.281Z,10.70
2023-01-11T01:49:49.574Z,10.60
2023-01-11T01:52:18.042Z,10.70
2023-01-11T01:54:46.877Z,10.60
2023-01-11T01:57:23.985Z,10.60
2023-01-11T01:59:54.370Z,10.60
2023-01-11T02:02:23.080Z,10.50
2023-01-11T02:04:53.124Z,10.70
2023-01-11T02:07:23.610Z,10.60
2023-01-11T02:10:15.819Z,10.40
2023-01-11T02:13:01.529Z,10.50
2023-01-11T02:15:30.087Z,10.40
2023-01-11T02:17:58.154Z,10.30
2023-01-11T02:20:59.319Z,10.50
2023-01-11T02:23:57.249Z,10.30
2023-01-11T02:26:49.305Z,10.10
2023-01-11T02:29:36.163Z,10.20
2023-01-11T02:32:15.598Z,10.20
2023-01-11T02:35:12.984Z,10.20
2023-01-11T02:38:14.553Z,10.40
2023-01-11T02:41:12.414Z,10.10
2023-01-11T02:44:35.418Z,10.20
2023-01-11T02:47:04.389Z,10.10
2023-01-11T02:49:52.181Z,9.80
2023-01-11T02:52:29.981Z,10.10
2023-01-11T02:54:58.541Z,10.10
2023-01-11T02:57:28.828Z,10.10
2023-01-11T02:59:58.610Z,10.10
2023-01-11T03:02:28.229Z,10.10
2023-01-11T03:04:57.202Z,9.70
2023-01-11T03:07:43.908Z,10.10
2023-01-11T03:10:43.908Z,10.00
2023-01-11T03:13:17.880Z,9.90
2023-01-11T03:16:10.602Z,10.00
2023-01-11T03:18:45.793Z,10.00
2023-01-11T03:21:49.155Z,9.60
2023-01-11T03:24:44.459Z,10.00
2023-01-11T03:27:34.677Z,9.80
2023-01-11T03:30:37.197Z,9.90
2023-01-11T03:33:24.648Z,9.90
2023-01-11T03:35:59.008Z,9.60
2023-01-11T03:38:41.754Z,10.00
2023-01-11T03:41:13.094Z,9.90
2023-01-11T03:43:41.854Z,9.90
2023-01-11T03:46:14.867Z,9.50
2023-01-11T03:48:48.119Z,9.70
2023-01-11T03:51:18.656Z,9.90
2023-01-11T03:53:47.872Z,9.70
2023-01-11T03:56:20.692Z,9.80
2023-01-11T03:58:49.137Z,9.70
2023-01-11T04:01:19.970Z,9.70
2023-01-11T04:03:56.278Z,9.40
2023-01-11T04:06:24.425Z,9.50
2023-01-11T04:08:52.858Z,9.40
2023-01-11T04:11:20.881Z,9.50
2023-01-11T04:13:49.822Z,9.60
2023-01-11T04:16:17.799Z,9.50
2023-01-11T04:18:45.969Z,9.70
2023-01-11T04:21:14.141Z,9.60
2023-01-11T04:23:42.355Z,9.40
2023-01-11T04:26:10.525Z,9.20
2023-01-11T04:28:38.388Z,9.70
2023-01-11T04:31:06.898Z,9.40
2023-01-11T04:33:39.179Z,9.40
2023-01-11T04:36:08.429Z,9.40
2023-01-11T04:38:36.409Z,9.30
2023-01-11T04:41:23.920Z,9.30
2023-01-11T04:43:54.064Z,9.20
2023-01-11T04:46:25.550Z,9.30
2023-01-11T04:48:54.890Z,9.30
2023-01-11T04:51:22.614Z,9.40
2023-01-11T04:53:50.503Z,9.20
2023-01-11T04:56:19.813Z,9.40
2023-01-11T04:58:47.853Z,8.90
2023-01-11T05:01:19.305Z,9.10
2023-01-11T05:03:48.006Z,9.00
2023-01-11T05:06:16.167Z,9.20
2023-01-11T05:08:47.428Z,9.20
2023-01-11T05:11:14.954Z,9.10
2023-01-11T05:13:42.200Z,9.00
2023-01-11T05:16:23.870Z,9.00
2023-01-11T05:18:52.659Z,9.20
2023-01-11T05:21:21.521Z,8.90
2023-01-11T05:23:48.757Z,9.10
2023-01-11T05:26:17.929Z,9.00
2023-01-11T05:28:45.872Z,8.80
2023-01-11T05:31:13.295Z,9.00
2023-01-11T05:33:40.252Z,9.20
2023-01-11T05:36:10.305Z,8.90
2023-01-11T05:38:37.327Z,9.00
2023-01-11T05:41:06.558Z,9.20
2023-01-11T05:43:33.854Z,9.10
2023-01-11T05:46:01.286Z,9.20
2023-01-11T05:48:28.495Z,9.20
2023-01-11T05:50:56.942Z,9.20
2023-01-11T05:53:24.327Z,9.10
2023-01-11T05:55:56.697Z,9.00
2023-01-11T05:58:25.895Z,9.00
2023-01-11T06:00:58.126Z,9.00
2023-01-11T06:03:25.627Z,9.10
2023-01-11T06:05:52.965Z,9.10
2023-01-11T06:08:20.315Z,9.00
2023-01-11T06:10:56.848Z,8.80
2023-01-11T06:13:27.938Z,9.00
2023-01-11T06:16:01.120Z,9.00
2023-01-11T06:18:29.596Z,9.00
2023-01-11T06:20:56.909Z,8.90
2023-01-11T06:23:24.826Z,9.00
2023-01-11T06:25:52.286Z,9.10
2023-01-11T06:28:19.687Z,9.10
2023-01-11T06:30:54.377Z,9.30
2023-01-11T06:33:22.786Z,8.90
2023-01-11T06:35:50.138Z,9.20
2023-01-11T06:38:18.948Z,9.20
2023-01-11T06:40:53.122Z,8.80
2023-01-11T06:43:21.129Z,8.90
2023-01-11T06:45:51.917Z,9.00
2023-01-11T06:48:19.774Z,9.10
2023-01-11T06:50:52.025Z,9.00
2023-01-11T06:53:21.518Z,9.00
2023-01-11T06:55:52.617Z,8.90
2023-01-11T06:58:20.632Z,8.80
2023-01-11T07:00:47.879Z,9.10
2023-01-11T07:03:15.132Z,8.80
2023-01-11T07:05:45.092Z,8.70
2023-01-11T07:08:12.464Z,8.80
2023-01-11T07:10:39.675Z,8.80
2023-01-11T07:13:06.703Z,8.80
2023-01-11T07:15:35.046Z,9.00
2023-01-11T07:18:02.578Z,8.70
2023-01-11T07:20:29.815Z,8.80
2023-01-11T07:22:58.883Z,8.90
2023-01-11T07:25:27.777Z,8.70
2023-01-11T07:28:01.525Z,8.70
2023-01-11T07:30:29.451Z,8.90
2023-01-11T07:32:57.749Z,8.90
2023-01-11T07:35:24.938Z,8.70
2023-01-11T07:37:51.860Z,8.80
2023-01-11T07:40:19.092Z,8.60
2023-01-11T07:43:08.369Z,8.80
2023-01-11T07:45:45.511Z,8.70
2023-01-11T07:48:13.299Z,8.70
2023-01-11T07:50:42.693Z,8.70
2023-01-11T07:53:11.135Z,8.70
2023-01-11T07:55:39.779Z,9.00
2023-01-11T07:58:07.892Z,8.80
2023-01-11T08:00:34.884Z,8.90
2023-01-11T08:03:02.446Z,8.90
2023-01-11T08:05:29.749Z,9.00
2023-01-11T08:07:56.679Z,8.70
2023-01-11T08:10:23.909Z,8.90
2023-01-11T08:13:09.922Z,8.80
2023-01-11T08:15:37.232Z,9.00
2023-01-11T08:18:05.829Z,8.70
2023-01-11T08:20:33.096Z,8.90
2023-01-11T08:23:03.880Z,8.80
2023-01-11T08:25:31.205Z,8.80
2023-01-11T08:28:00.892Z,8.90
2023-01-11T08:30:28.401Z,9.00
2023-01-11T08:32:57.182Z,8.90
2023-01-11T08:35:25.248Z,8.80
2023-01-11T08:37:52.345Z,8.90
2023-01-11T08:40:20.093Z,9.20
2023-01-11T08:42:47.509Z,8.90
2023-01-11T08:45:14.568Z,8.90
2023-01-11T08:47:41.513Z,8.90
2023-01-11T08:50:09.726Z,8.90
2023-01-11T08:52:36.751Z,9.10
2023-01-11T08:55:07.669Z,9.00
2023-01-11T08:57:36.688Z,9.00
2023-01-11T09:00:04.997Z,9.10
2023-01-11T09:02:32.045Z,8.80
2023-01-11T09:04:59.226Z,9.20
2023-01-11T09:07:26.215Z,9.10
2023-01-11T09:09:53.221Z,9.10
2023-01-11T09:12:20.244Z,9.10
2023-01-11T09:14:47.196Z,8.90
2023-01-11T09:17:14.140Z,9.20
2023-01-11T09:19:41.124Z,9.00
2023-01-11T09:22:08.080Z,9.00
2023-01-11T09:24:35.078Z,9.10
2023-01-11T09:27:02.179Z,9.10
2023-01-11T09:29:29.393Z,9.00
2023-01-11T09:31:56.482Z,9.20
2023-01-11T09:34:25.425Z,9.20
2023-01-11T09:36:52.530Z,9.30
2023-01-11T09:39:22.571Z,9.40
2023-01-11T09:42:02.153Z,9.70
2023-01-11T09:44:29.880Z,9.60
2023-01-11T09:47:09.858Z,9.40
2023-01-11T09:49:40.752Z,9.60
2023-01-11T09:52:29.092Z,9.70
2023-01-11T09:54:59.431Z,9.80
2023-01-11T09:57:48.124Z,9.70
2023-01-11T10:00:18.160Z,10.00
2023-01-11T10:03:14.843Z,9.90
2023-01-11T10:05:51.497Z,9.90
2023-01-11T10:18:31.575Z,10.00
2023-01-11T10:18:37.851Z,10.00
2023-01-11T10:21:17.523Z,10.10
2023-01-11T10:24:02.795Z,10.30
2023-01-11T10:26:36.296Z,10.30
2023-01-11T10:29:30.255Z,9.90
2023-01-11T10:32:02.759Z,10.00
2023-01-11T10:34:42.449Z,10.20
2023-01-11T10:37:18.034Z,10.10
2023-01-11T10:40:26.029Z,10.20
2023-01-11T10:43:04.693Z,10.20
2023-01-11T10:45:51.164Z,10.20
2023-01-11T10:48:32.161Z,10.20
2023-01-11T10:51:18.453Z,10.20
2023-01-11T10:54:00.402Z,10.60
2023-01-11T10:56:27.577Z,10.50
2023-01-11T10:59:00.777Z,10.40
2023-01-11T11:01:53.019Z,10.50
2023-01-11T11:04:22.904Z,10.50
2023-01-11T11:07:33.021Z,10.60
2023-01-11T11:10:18.903Z,10.60
2023-01-11T11:13:10.020Z,10.40
2023-01-11T11:15:38.700Z,10.60
2023-01-11T11:18:05.987Z,10.90
2023-01-11T11:20:33.857Z,10.70
2023-01-11T11:23:01.022Z,10.80
2023-01-11T11:25:38.598Z,10.80
2023-01-11T11:28:27.722Z,10.80
2023-01-11T11:30:56.153Z,10.80
2023-01-11T11:33:24.946Z,10.80
2023-01-11T11:36:04.775Z,10.90
2023-01-11T11:38:33.751Z,10.70
2023-01-11T11:41:15.136Z,11.10
2023-01-11T11:43:43.477Z,10.80
2023-01-11T11:46:19.934Z,11.00
2023-01-11T11:49:10.256Z,10.90
2023-01-11T11:51:37.563Z,10.90
2023-01-11T11:54:04.570Z,11.00
2023-01-11T11:56:35.586Z,11.00
2023-01-11T11:59:07.675Z,11.00
2023-01-11T12:01:35.920Z,11.10
2023-01-11T12:04:19.837Z,11.00
2023-01-11T12:06:52.755Z,11.20
2023-01-11T12:09:30.651Z,11.10
2023-01-11T12:11:57.727Z,11.20
2023-01-11T12:14:30.760Z,11.20
2023-01-11T12:16:59.488Z,11.20
2023-01-11T12:19:43.947Z,11.20
2023-01-11T12:22:18.493Z,11.10
2023-01-11T12:24:46.794Z,11.10
2023-01-11T12:27:16.901Z,11.10
2023-01-11T12:30:08.498Z,11.20
2023-01-11T12:33:13.151Z,11.20
2023-01-11T12:35:48.433Z,11.10
2023-01-11T12:38:21.340Z,11.20
2023-01-11T12:41:17.556Z,11.20
2023-01-11T12:44:02.786Z,11.20
2023-01-11T12:47:34.783Z,11.20
2023-01-11T12:50:13.455Z,11.10
2023-01-11T12:52:59.154Z,11.10
2023-01-11T12:55:38.239Z,11.10
2023-01-11T12:58:19.193Z,11.20
2023-01-11T13:01:23.818Z,11.20
2023-01-11T13:04:28.230Z,11.30
2023-01-11T13:07:16.982Z,11.30
2023-01-11T13:10:02.401Z,11.20
2023-01-11T13:12:49.837Z,11.20
2023-01-11T13:15:42.320Z,11.20
2023-01-11T13:18:24.334Z,11.30
2023-01-11T13:21:01.299Z,11.30
2023-01-11T13:23:44.259Z,11.30
2023-01-11T13:26:24.096Z,11.20
2023-01-11T13:29:16.068Z,11.20
2023-01-11T13:31:43.167Z,11.30
2023-01-11T13:34:27.702Z,11.40
2023-01-11T13:37:20.239Z,11.40
2023-01-11T13:40:07.514Z,11.20
2023-01-11T13:42:36.724Z,11.40
2023-01-11T13:45:36.305Z,11.40
2023-01-11T13:48:41.073Z,11.50
2023-01-11T13:51:23.230Z,11.40
2023-01-11T13:54:16.382Z,11.00
2023-01-11T13:56:45.764Z,10.70
2023-01-11T13:59:19.689Z,9.90
2023-01-11T14:01:57.853Z,9.50
2023-01-11T14:04:33.944Z,9.20
2023-01-11T14:07:07.172Z,9.00
2023-01-11T14:09:53.571Z,9.40
2023-01-11T14:12:57.597Z,9.20
2023-01-11T14:15:26.534Z,9.30
2023-01-11T14:18:17.032Z,9.30
2023-01-11T14:20:56.319Z,9.30
2023-01-11T14:23:50.602Z,9.50
2023-01-11T14:26:40.687Z,9.40
2023-01-11T14:29:13.477Z,9.30
2023-01-11T14:31:55.614Z,9.30
2023-01-11T14:35:00.081Z,9.20
2023-01-11T14:37:45.984Z,9.40
2023-01-11T14:40:25.791Z,9.20
2023-01-11T14:43:11.369Z,9.50
2023-01-11T14:46:08.359Z,9.40
2023-01-11T14:48:40.645Z,9.70
2023-01-11T14:51:34.291Z,9.50
2023-01-11T14:54:15.573Z,9.30
2023-01-11T14:56:42.701Z,9.40
2023-01-11T14:59:39.296Z,9.40
2023-01-11T15:02:06.490Z,9.50
2023-01-11T15:04:37.993Z,9.70
2023-01-11T15:07:25.620Z,9.60
2023-01-11T15:09:54.010Z,9.60
2023-01-11T15:12:22.181Z,9.40
2023-01-11T15:15:02.804Z,9.50
2023-01-11T15:17:48.614Z,9.60
2023-01-11T15:20:17.786Z,9.60
2023-01-11T15:22:45.023Z,9.70
2023-01-11T15:25:28.762Z,9.70
2023-01-11T15:27:56.121Z,9.90
2023-01-11T15:30:32.078Z,9.70
2023-01-11T15:33:17.572Z,9.60
2023-01-11T15:35:56.650Z,9.50
2023-01-11T15:38:42.644Z,9.50
2023-01-11T15:41:55.965Z,9.60
2023-01-11T15:44:55.848Z,9.30
2023-01-11T15:47:44.379Z,9.40
2023-01-11T15:50:48.400Z,9.30
2023-01-11T15:53:21.354Z,9.30
2023-01-11T15:56:14.920Z,9.20
2023-01-11T15:58:57.015Z,9.20
2023-01-11T16:01:26.214Z,8.90
2023-01-11T16:04:27.429Z,8.70
2023-01-11T16:06:57.486Z,8.80
2023-01-11T16:09:58.210Z,8.90
2023-01-11T16:12:46.865Z,9.10
2023-01-11T16:15:30.375Z,9.10
2023-01-11T16:18:02.498Z,9.00
2023-01-11T16:20:29.918Z,8.90
2023-01-11T16:23:03.787Z,8.90
2023-01-11T16:25:33.246Z,9.20
2023-01-11T16:28:00.338Z,8.90
2023-01-11T16:30:27.874Z,8.90
2023-01-11T16:33:17.697Z,8.80
2023-01-11T16:35:44.746Z,9.10
2023-01-11T16:38:22.012Z,8.90
2023-01-11T16:40:50.278Z,8.80
2023-01-11T16:43:18.597Z,8.90
2023-01-11T16:45:47.451Z,8.80
2023-01-11T16:48:19.030Z,8.90
2023-01-11T16:51:08.858Z,8.70
2023-01-11T16:53:39.612Z,8.70
2023-01-11T16:56:16.517Z,8.70
2023-01-11T16:58:43.512Z,8.80
2023-01-11T17:01:11.901Z,8.60
2023-01-11T17:03:48.243Z,8.70
2023-01-11T17:06:17.579Z,8.60
2023-01-11T17:08:47.408Z,8.70
2023-01-11T17:11:22.935Z,8.80
2023-01-11T17:14:08.461Z,8.90
2023-01-11T17:16:45.452Z,8.60
2023-01-11T17:19:16.796Z,8.50
2023-01-11T17:21:59.652Z,8.80
2023-01-11T17:24:27.309Z,8.60
2023-01-11T17:26:59.121Z,8.70
2023-01-11T17:29:33.014Z,8.70
2023-01-11T17:32:00.972Z,8.60
2023-01-11T17:34:31.637Z,8.60
2023-01-11T17:36:58.704Z,8.70
2023-01-11T17:39:33.540Z,8.80
2023-01-11T17:42:23.406Z,8.80
2023-01-11T17:45:09.542Z,9.00
2023-01-11T17:47:41.340Z,8.90
2023-01-11T17:50:18.695Z,8.90
2023-01-11T17:52:54.453Z,8.90
2023-01-11T17:55:25.297Z,9.00
2023-01-11T17:58:14.023Z,9.10
2023-01-11T18:00:42.368Z,9.30
2023-01-11T18:03:14.537Z,9.10
2023-01-11T18:05:41.957Z,9.10
2023-01-11T18:08:18.303Z,9.40
2023-01-11T18:10:55.664Z,9.30
2023-01-11T18:13:27.847Z,9.20
2023-01-11T18:15:54.891Z,9.20
2023-01-11T18:18:38.398Z,9.40
2023-01-11T18:21:41.222Z,9.50
2023-01-11T18:24:11.120Z,9.30
2023-01-11T18:26:39.265Z,9.60
2023-01-11T18:29:06.234Z,9.60
2023-01-11T18:31:33.244Z,9.50
2023-01-11T18:34:07.783Z,9.50
2023-01-11T18:36:34.765Z,9.40
2023-01-11T18:39:02.703Z,9.50
2023-01-11T18:41:48.376Z,9.70
2023-01-11T18:44:15.621Z,9.70
2023-01-11T18:46:42.563Z,9.50
2023-01-11T18:49:09.497Z,9.60
2023-01-11T18:51:40.019Z,10.00
2023-01-11T18:54:07.012Z,9.70
2023-01-11T18:56:33.948Z,9.90
2023-01-11T18:59:00.904Z,9.80
2023-01-11T19:01:28.023Z,9.80
2023-01-11T19:03:54.957Z,9.80
2023-01-11T19:06:22.830Z,9.90
2023-01-11T19:08:49.799Z,9.90
2023-01-11T19:11:16.981Z,9.90
2023-01-11T19:13:46.881Z,9.90
2023-01-11T19:16:14.718Z,10.20
2023-01-11T19:18:41.777Z,9.90
2023-01-11T19:21:13.947Z,10.00
2023-01-11T19:23:41.461Z,10.30
2023-01-11T19:26:08.416Z,10.10
2023-01-11T19:28:35.393Z,10.10
2023-01-11T19:31:07.048Z,10.10
2023-01-11T19:33:34.129Z,10.10
2023-01-11T19:36:08.700Z,10.20
2023-01-11T19:38:35.763Z,9.90
2023-01-11T19:41:07.993Z,10.20
2023-01-11T19:43:35.743Z,10.00
2023-01-11T19:46:04.040Z,10.10
2023-01-11T19:48:33.364Z,10.10
2023-01-11T19:51:05.163Z,10.10
2023-01-11T19:53:32.478Z,10.10
2023-01-11T19:56:07.303Z,10.20
2023-01-11T19:58:36.910Z,10.40
2023-01-11T20:01:13.482Z,10.20
2023-01-11T20:03:44.969Z,10.40
2023-01-11T20:06:11.934Z,10.50
2023-01-11T20:08:40.660Z,10.30
2023-01-11T20:11:08.875Z,10.40
2023-01-11T20:13:36.106Z,10.60
2023-01-11T20:16:07.241Z,10.30
2023-01-11T20:18:34.450Z,10.30
2023-01-11T20:21:01.772Z,10.40
2023-01-11T20:23:32.392Z,10.50
2023-01-11T20:26:03.904Z,10.50
2023-01-11T20:28:31.754Z,10.50
2023-01-11T20:31:01.963Z,10.40
2023-01-11T20:33:29.130Z,10.50
2023-01-11T20:35:56.197Z,10.50
2023-01-11T20:38:23.101Z,10.60
2023-01-11T20:40:50.036Z,10.50
2023-01-11T20:43:17.551Z,10.50
2023-01-11T20:45:45.294Z,10.50
2023-01-11T20:48:12.293Z,10.50
2023-01-11T20:50:39.560Z,10.60
2023-01-11T20:53:06.650Z,10.70
2023-01-11T20:55:34.140Z,10.50
2023-01-11T20:58:01.644Z,10.70
2023-01-11T21:00:29.875Z,10.60
2023-01-11T21:02:57.560Z,10.60
2023-01-11T21:05:24.919Z,10.60
2023-01-11T21:07:55.331Z,10.60
2023-01-11T21:10:22.422Z,10.70
2023-01-11T21:12:52.116Z,10.50
2023-01-11T21:15:19.296Z,10.80
2023-01-11T21:17:46.482Z,10.70
2023-01-11T21:20:14.112Z,10.70
2023-01-11T21:22:41.594Z,10.70
2023-01-11T21:25:09.207Z,10.80
2023-01-11T21:27:37.074Z,11.00
2023-01-11T21:30:04.577Z,11.00
2023-01-11T21:32:31.617Z,10.90
2023-01-11T21:34:58.707Z,10.90
2023-01-11T21:37:25.868Z,10.90
2023-01-11T21:39:52.931Z,11.20
2023-01-11T21:42:20.059Z,11.00
2023-01-11T21:44:47.145Z,11.00
2023-01-11T21:47:14.805Z,11.00
2023-01-11T21:49:41.784Z,10.90
2023-01-11T21:52:08.813Z,11.00
2023-01-11T21:54:35.996Z,11.10
2023-01-11T21:57:02.953Z,11.00
2023-01-11T21:59:30.577Z,11.00
2023-01-11T22:01:57.520Z,11.00
2023-01-11T22:04:24.581Z,10.90
2023-01-11T22:06:55.196Z,11.00
2023-01-11T22:09:24.994Z,11.10
2023-01-11T22:11:51.864Z,11.00
2023-01-11T22:14:18.845Z,11.30
2023-01-11T22:16:45.760Z,11.10
2023-01-11T22:19:12.919Z,11.10
2023-01-11T22:21:40.089Z,11.10
2023-01-11T22:24:10.243Z,11.00
2023-01-11T22:26:39.254Z,11.00
2023-01-11T22:29:14.681Z,11.30
2023-01-11T22:31:44.188Z,11.10
2023-01-11T22:34:11.909Z,11.10
2023-01-11T22:36:39.125Z,11.10
2023-01-11T22:39:06.434Z,11.10
2023-01-11T22:41:33.392Z,11.20
2023-01-11T22:44:00.456Z,11.20
2023-01-11T22:46:27.846Z,11.20
2023-01-11T22:48:54.846Z,11.20
2023-01-11T22:51:23.577Z,11.20
2023-01-11T22:53:50.851Z,10.90
2023-01-11T22:56:19.183Z,11.30
2023-01-11T22:58:50.714Z,11.30
2023-01-11T23:01:22.669Z,11.30
2023-01-11T23:03:50.251Z,11.40
2023-01-11T23:06:38.219Z,11.30
2023-01-11T23:09:06.500Z,11.30
2023-01-11T23:11:55.068Z,11.30
2023-01-11T23:14:22.051Z,11.40
2023-01-11T23:16:50.473Z,11.30
2023-01-11T23:19:18.229Z,11.30
2023-01-11T23:21:45.436Z,11.40
2023-01-11T23:24:12.990Z,11.40
2023-01-11T23:26:40.263Z,11.40
2023-01-11T23:29:07.355Z,11.40
2023-01-11T23:31:35.252Z,11.40
2023-01-11T23:34:02.736Z,11.40
2023-01-11T23:36:31.622Z,11.50
2023-01-11T23:38:58.661Z,11.60
2023-01-11T23:41:44.549Z,11.50
2023-01-11T23:44:13.296Z,11.50
2023-01-11T23:46:59.140Z,11.40
2023-01-11T23:49:26.401Z,11.40
2023-01-11T23:51:53.719Z,11.50
2023-01-11T23:54:20.796Z,11.40
2023-01-11T23:56:47.733Z,11.40
2023-01-11T23:59:14.751Z,11.40
